Ana Sayfa
METAR-TAF:

METAR-TAF

Havaalanları :

Zielona Góra, Polonya

Enlem: 52-08-19N, Boylam: 015-47-55E, yükseklik: 59 m

Güncel hava durumu gözlemi

Rapor saat 04:30 UTC de 29 dakika önce yapıldı.
Rüzgar güney/güneybatıdan 4 kt
Sıcaklık -5°C
Nem 79%
Basınç 1023 hPa
Görüş mesafesi 10 km veya daha fazla
1500 m altında bulut yok ve kümülonimbus yok

METAR: EPZG 010430Z 20004KT CAVOK M05/M08 Q1023

Saat: 06:59 (04:59 UTC)

Tahmin

Rapor saat 03:03 UTC de 1 saat ve 56 dakika önce yapıldı.
Ayın 01'si saat 03 UTC'den ayın 01'si saat 12 UTC'ye kadar geçerli Tahmin
Rüzgar güneybatıdan 6 kt
Görüş mesafesi 10 km veya daha fazla
1500 m altında bulut yok ve kümülonimbus yok
Dönüşüyor
ayın 01'si saat 06 UTC'den ayın 01'si saat 08 UTC'ye kadar
Rüzgar batı/güneybatıdan 15 kt ve 25 kt'a kadar ani rüzgarlar

TAF: EPZG 010303Z 0103/0112 23006KT CAVOK BECMG 0106/0108 25015G25KT

4.000'den fazla havaalanı için hava durumu gözlemleri ve tahminleri (METAR ve TAF raporları).

Kullanılabilir istasyonlar harita üzerinde sarı ve kırmızı noktalarla gösterilir.

İstasyonun adını görmek için fareyi noktanın üzerinde gezdirin.

Sonrasında hava gözlem ve tahminlerini görmek için tıklayın.

Haritayı değiştirmek için: yaklaştırmak için siyah artı işaretli yeşil düğmeye ve uzaklaştırmak için de eksi işaretli düğmeye hızla tıklayın; bitişik haritalar için yeşil okları kullanın.


METAR-TAF: